VLI weather

Bauerfield International Airport
Port Vila, Shefa, Vanuatu

Public forecast

Using degrees Celsius for public forecast. Weather courtesy of forecast.io.

Current aviation weather report (METAR) for Bauerfield International Airport

Retrieved 2019/10/21 20:00 UTC (1 hour ago):

NVVV 212000Z 09003KT 9999 BKN020 25/24 Q1014

Aviation forecast (TAF) for Bauerfield International Airport

Retrieved 2019/10/21 18:15 UTC (3 hours ago):

TAF TAF NVVV 211600Z 2118/2218 09006KT 9999 SCT020 PROB40 INTER 2118/2121 9000 -SHRA BKN018 BECMG 2120/2122 12015KT